Isuzu — JD3277 — position and weather

sailwx.info

Track history (hours):
 
Tides and Currents Weather Stations Pressure Air Temp Water Temp Dewpoint Dewpoint Depression Visibility Wind Speed Wind Dir Waves Ship Positions

Isuzu

Last reported at 2017-Nov-18 05:33 UTC. Time now 2017-Nov-20 13:40 UTC.
Position N 34°37' E 134°57'.

Length 65 m; draft 4.3 m.

Type: Tanker. MMSI: 431003203.

Date/timePositionNaut miles runAvg speedWind from/ knotsBaromVisibWave heightAir tempDewpointWater temp
2017-Nov-18 05:33N 34°37' E 134°57'110.4
2017-Nov-18 05:30N 34°37' E 134°58'5 8.8
2017-Nov-18 04:56N 34°36' E 135°04'510.8
2017-Nov-18 04:30N 34°35' E 135°09'712.2
2017-Nov-18 03:57N 34°33' E 135°17'6 1.3
2017-Nov-17 23:07N 34°32' E 135°25'0 0.5
2017-Nov-17 23:00N 34°32' E 135°25'1 1.5
2017-Nov-17 22:30N 34°32' E 135°24'3 5.1
2017-Nov-17 21:55N 34°32' E 135°20'0 0.0
2017-Nov-17 21:25N 34°32' E 135°20'0 0.0
2017-Nov-17 20:43N 34°32' E 135°20'0 0.0
2017-Nov-17 20:25N 34°32' E 135°20'2 4.0
2017-Nov-17 20:00N 34°31' E 135°18'612.1
2017-Nov-17 19:30N 34°29' E 135°12'2212.1
2017-Nov-17 17:40N 34°08' E 135°02'212.9
2017-Nov-17 17:30N 34°06' E 135°02'4 0.1
2017-Nov-16 05:31N 34°01' E 135°02'213.1
2017-Nov-16 05:21N 34°04' E 135°02'412.9
2017-Nov-16 05:01N 34°08' E 135°02'713.0
2017-Nov-16 04:30N 34°15' E 135°02'1413.2
2017-Nov-16 03:25N 34°27' E 135°11'712.5
2017-Nov-16 02:54N 34°32' E 135°16'512.2
2017-Nov-16 02:31N 34°35' E 135°20'612.0
2017-Nov-16 02:00N 34°40' E 135°25'0 0.5
2017-Nov-16 01:30N 34°40' E 135°25'0 0.0
2017-Nov-16 00:58N 34°40' E 135°25'0 0.0
2017-Nov-15 23:27N 34°40' E 135°25'1 2.6
2017-Nov-15 23:00N 34°39' E 135°25'3 6.9
2017-Nov-15 22:30N 34°37' E 135°21'3 5.2
2017-Nov-15 21:59N 34°35' E 135°19'0 0.0
2017-Nov-15 21:08N 34°35' E 135°19'0 0.0
2017-Nov-15 20:50N 34°35' E 135°19'0 0.0
2017-Nov-15 20:14N 34°35' E 135°19'1 3.0
2017-Nov-15 20:00N 34°35' E 135°18'612.4
2017-Nov-15 19:30N 34°35' E 135°10'612.8
2017-Nov-15 19:00N 34°36' E 135°03'7 0.2
2017-Nov-14 07:11N 34°36' E 134°54'315.0
2017-Nov-14 07:00N 34°37' E 134°57'713.3
2017-Nov-14 06:30N 34°36' E 135°05'712.9
2017-Nov-14 05:59N 34°35' E 135°13'713.1
2017-Nov-14 05:25N 34°34' E 135°22'3 7.4
2017-Nov-14 05:00N 34°33' E 135°25'0 0.0
2017-Nov-13 22:24N 34°32' E 135°25'0 1.0
2017-Nov-13 21:59N 34°33' E 135°25'199 5.9
2017-Nov-12 12:19N 35°00' E 139°25'411.3
2017-Nov-12 11:59N 35°02' E 139°29'511.5
2017-Nov-12 11:30N 35°04' E 139°35'612.1
2017-Nov-12 11:00N 35°08' E 139°42'612.1
2017-Nov-12 10:30N 35°12' E 139°46'611.5
2017-Nov-12 10:00N 35°18' E 139°44'611.1
2017-Nov-12 09:30N 35°23' E 139°42'611.6
2017-Nov-12 09:00N 35°27' E 139°47'12 0.4
2017-Nov-11 04:02N 35°34' E 140°00'112.8
2017-Nov-11 03:59N 35°34' E 139°59'612.5
2017-Nov-11 03:30N 35°31' E 139°53'510.3
2017-Nov-11 02:59N 35°30' E 139°46'0 0.8
2017-Nov-11 02:30N 35°31' E 139°46'0 0.0
2017-Nov-11 02:00N 35°31' E 139°46'0 0.0
2017-Nov-10 23:11N 35°31' E 139°46'0 0.2
2017-Nov-10 23:00N 35°31' E 139°46'2 4.5
2017-Nov-10 22:30N 35°30' E 139°49'1 1.0
2017-Nov-10 21:53N 35°29' E 139°49'0 0.0
2017-Nov-10 21:29N 35°29' E 139°49'0 0.0
2017-Nov-10 21:00N 35°29' E 139°49'0 0.0
2017-Nov-10 20:30N 35°29' E 139°49'0 0.0
2017-Nov-10 19:58N 35°29' E 139°49'0 0.0
2017-Nov-10 19:30N 35°29' E 139°49'0 0.0
2017-Nov-10 18:59N 35°29' E 139°49'0 0.0
2017-Nov-10 18:30N 35°29' E 139°49'0 0.1
2017-Nov-10 18:00N 35°29' E 139°48'0 0.0
2017-Nov-10 17:31N 35°29' E 139°48'0 0.0
2017-Nov-10 16:58N 35°29' E 139°48'0 0.0
2017-Nov-10 16:30N 35°29' E 139°48'0 0.0
2017-Nov-10 15:58N 35°29' E 139°48'0 0.0
2017-Nov-10 15:28N 35°29' E 139°48'0 0.0
2017-Nov-10 14:58N 35°29' E 139°48'0 0.0
2017-Nov-10 14:25N 35°29' E 139°48'0 0.1
2017-Nov-10 14:00N 35°29' E 139°48'510.6
2017-Nov-10 13:29N 35°24' E 139°46'611.9
2017-Nov-10 13:00N 35°18' E 139°44'611.4
2017-Nov-10 12:30N 35°13' E 139°47'612.0
2017-Nov-10 12:00N 35°07' E 139°44'612.7
2017-Nov-10 11:30N 35°03' E 139°39'  
Track history (hours):
 
Tides and Currents Weather Stations Pressure Air Temp Water Temp Dewpoint Dewpoint Depression Visibility Wind Speed Wind Dir Waves Ship Positions

Isuzu

Last reported at 2017-Nov-18 05:33 UTC. Time now 2017-Nov-20 13:40 UTC.
Position N 34°37' E 134°57'.

Length 65 m; draft 4.3 m.

Type: Tanker. MMSI: 431003203.

Date/timePositionNaut miles runAvg speedWind from/ knotsBaromVisibWave heightAir tempDewpointWater temp
2017-Nov-18 05:33N 34°37' E 134°57'110.4
2017-Nov-18 05:30N 34°37' E 134°58'5 8.8
2017-Nov-18 04:56N 34°36' E 135°04'510.8
2017-Nov-18 04:30N 34°35' E 135°09'712.2
2017-Nov-18 03:57N 34°33' E 135°17'6 1.3
2017-Nov-17 23:07N 34°32' E 135°25'0 0.5
2017-Nov-17 23:00N 34°32' E 135°25'1 1.5
2017-Nov-17 22:30N 34°32' E 135°24'3 5.1
2017-Nov-17 21:55N 34°32' E 135°20'0 0.0
2017-Nov-17 21:25N 34°32' E 135°20'0 0.0
2017-Nov-17 20:43N 34°32' E 135°20'0 0.0
2017-Nov-17 20:25N 34°32' E 135°20'2 4.0
2017-Nov-17 20:00N 34°31' E 135°18'612.1
2017-Nov-17 19:30N 34°29' E 135°12'2212.1
2017-Nov-17 17:40N 34°08' E 135°02'212.9
2017-Nov-17 17:30N 34°06' E 135°02'4 0.1
2017-Nov-16 05:31N 34°01' E 135°02'213.1
2017-Nov-16 05:21N 34°04' E 135°02'412.9
2017-Nov-16 05:01N 34°08' E 135°02'713.0
2017-Nov-16 04:30N 34°15' E 135°02'1413.2
2017-Nov-16 03:25N 34°27' E 135°11'712.5
2017-Nov-16 02:54N 34°32' E 135°16'512.2
2017-Nov-16 02:31N 34°35' E 135°20'612.0
2017-Nov-16 02:00N 34°40' E 135°25'0 0.5
2017-Nov-16 01:30N 34°40' E 135°25'0 0.0
2017-Nov-16 00:58N 34°40' E 135°25'0 0.0
2017-Nov-15 23:27N 34°40' E 135°25'1 2.6
2017-Nov-15 23:00N 34°39' E 135°25'3 6.9
2017-Nov-15 22:30N 34°37' E 135°21'3 5.2
2017-Nov-15 21:59N 34°35' E 135°19'0 0.0
2017-Nov-15 21:08N 34°35' E 135°19'0 0.0
2017-Nov-15 20:50N 34°35' E 135°19'0 0.0
2017-Nov-15 20:14N 34°35' E 135°19'1 3.0
2017-Nov-15 20:00N 34°35' E 135°18'612.4
2017-Nov-15 19:30N 34°35' E 135°10'612.8
2017-Nov-15 19:00N 34°36' E 135°03'7 0.2
2017-Nov-14 07:11N 34°36' E 134°54'315.0
2017-Nov-14 07:00N 34°37' E 134°57'713.3
2017-Nov-14 06:30N 34°36' E 135°05'712.9
2017-Nov-14 05:59N 34°35' E 135°13'713.1
2017-Nov-14 05:25N 34°34' E 135°22'3 7.4
2017-Nov-14 05:00N 34°33' E 135°25'0 0.0
2017-Nov-13 22:24N 34°32' E 135°25'0 1.0
2017-Nov-13 21:59N 34°33' E 135°25'199 5.9
2017-Nov-12 12:19N 35°00' E 139°25'411.3
2017-Nov-12 11:59N 35°02' E 139°29'511.5
2017-Nov-12 11:30N 35°04' E 139°35'612.1
2017-Nov-12 11:00N 35°08' E 139°42'612.1
2017-Nov-12 10:30N 35°12' E 139°46'611.5
2017-Nov-12 10:00N 35°18' E 139°44'611.1
2017-Nov-12 09:30N 35°23' E 139°42'611.6
2017-Nov-12 09:00N 35°27' E 139°47'12 0.4
2017-Nov-11 04:02N 35°34' E 140°00'112.8
2017-Nov-11 03:59N 35°34' E 139°59'612.5
2017-Nov-11 03:30N 35°31' E 139°53'510.3
2017-Nov-11 02:59N 35°30' E 139°46'0 0.8
2017-Nov-11 02:30N 35°31' E 139°46'0 0.0
2017-Nov-11 02:00N 35°31' E 139°46'0 0.0
2017-Nov-10 23:11N 35°31' E 139°46'0 0.2
2017-Nov-10 23:00N 35°31' E 139°46'2 4.5
2017-Nov-10 22:30N 35°30' E 139°49'1 1.0
2017-Nov-10 21:53N 35°29' E 139°49'0 0.0
2017-Nov-10 21:29N 35°29' E 139°49'0 0.0
2017-Nov-10 21:00N 35°29' E 139°49'0 0.0
2017-Nov-10 20:30N 35°29' E 139°49'0 0.0
2017-Nov-10 19:58N 35°29' E 139°49'0 0.0
2017-Nov-10 19:30N 35°29' E 139°49'0 0.0
2017-Nov-10 18:59N 35°29' E 139°49'0 0.0
2017-Nov-10 18:30N 35°29' E 139°49'0 0.1
2017-Nov-10 18:00N 35°29' E 139°48'0 0.0
2017-Nov-10 17:31N 35°29' E 139°48'0 0.0
2017-Nov-10 16:58N 35°29' E 139°48'0 0.0
2017-Nov-10 16:30N 35°29' E 139°48'0 0.0
2017-Nov-10 15:58N 35°29' E 139°48'0 0.0
2017-Nov-10 15:28N 35°29' E 139°48'0 0.0
2017-Nov-10 14:58N 35°29' E 139°48'0 0.0
2017-Nov-10 14:25N 35°29' E 139°48'0 0.1
2017-Nov-10 14:00N 35°29' E 139°48'510.6
2017-Nov-10 13:29N 35°24' E 139°46'611.9
2017-Nov-10 13:00N 35°18' E 139°44'611.4
2017-Nov-10 12:30N 35°13' E 139°47'612.0
2017-Nov-10 12:00N 35°07' E 139°44'612.7
2017-Nov-10 11:30N 35°03' E 139°39'  

Dump ship's entire track history